Time;durP1;ratioP1;P1;durP2;ratioP2;P2;SDS_P1;SDS_P2;PMS_P1;PMS_P2;Temp;Humidity;BMP_temperature;BMP_pressure;BME280_temperature;BME280_humidity;BME280_pressure;Samples;Min_cycle;Max_cycle;Signal;HPM_P1;HPM_P2
2024/01/22 00:01:44;;;;;;;0.10;0.10;;;6.50;99.90;;;;;;4997667;28;20034;-92
2024/01/22 00:04:10;;;;;;;0.10;0.10;;;;;;;;;;4997898;28;20026;-90
2024/01/22 00:06:39;;;;;;;0.10;0.10;;;6.50;99.90;;;;;;5011054;28;20077;-92
2024/01/22 00:09:05;;;;;;;0.10;0.10;;;;;;;;;;4997225;28;20496;-91
2024/01/22 00:11:31;;;;;;;0.00;0.00;;;;;;;;;;5003051;28;20109;-92
2024/01/22 00:13:57;;;;;;;0.03;0.03;;;;;;;;;;5003093;28;20065;-91
2024/01/22 00:16:24;;;;;;;0.10;0.10;;;;;;;;;;5018793;28;20025;-92
2024/01/22 00:18:50;;;;;;;0.00;0.00;;;;;;;;;;5005123;28;20109;-89
2024/01/22 00:21:16;;;;;;;0.00;0.00;;;;;;;;;;5002993;28;20037;-91
2024/01/22 00:23:42;;;;;;;0.10;0.10;;;;;;;;;;5002507;28;20030;-91
2024/01/22 00:26:13;;;;;;;0.10;0.10;;;;;;;;;;5013901;28;20030;-91
2024/01/22 00:28:40;;;;;;;0.10;0.10;;;;;;;;;;5001377;28;20589;-91
2024/01/22 00:31:06;;;;;;;0.00;0.00;;;;;;;;;;5003834;28;20038;-92
2024/01/22 00:33:31;;;;;;;0.08;0.08;;;;;;;;;;5001173;28;20069;-91
2024/01/22 00:35:57;;;;;;;0.00;0.00;;;;;;;;;;4999100;28;20069;-90
2024/01/22 00:38:23;;;;;;;0.00;0.00;;;;;;;;;;5016788;28;20030;-91
2024/01/22 00:40:49;;;;;;;0.10;0.10;;;;;;;;;;5005682;28;20030;-91
2024/01/22 00:43:15;;;;;;;0.10;0.10;;;;;;;;;;5002908;28;20026;-91
2024/01/22 00:45:41;;;;;;;0.10;0.10;;;;;;;;;;5017995;28;20034;-91
2024/01/22 00:48:08;;;;;;;0.00;0.00;;;6.80;99.90;;;;;;4999424;28;20057;-91
2024/01/22 00:50:34;;;;;;;0.00;0.00;;;;;;;;;;5000606;28;20033;-91
2024/01/22 00:52:59;;;;;;;0.10;0.10;;;;;;;;;;4999253;28;20052;-91
2024/01/22 00:55:25;;;;;;;0.10;0.10;;;;;;;;;;5001298;28;20080;-92
2024/01/22 00:57:51;;;;;;;0.00;0.00;;;;;;;;;;4994263;28;20494;-89
2024/01/22 01:00:17;;;;;;;0.10;0.10;;;;;;;;;;4995567;28;20105;-91
2024/01/22 01:02:44;;;;;;;0.10;0.10;;;;;;;;;;4994038;28;20022;-91
2024/01/22 01:05:10;;;;;;;0.10;0.10;;;;;;;;;;5012330;28;20045;-92
2024/01/22 01:07:36;;;;;;;0.10;0.10;;;;;;;;;;5021797;28;20477;-92
2024/01/22 01:10:02;;;;;;;0.10;0.10;;;;;;;;;;5002637;28;20026;-91
2024/01/22 01:12:28;;;;;;;0.10;0.10;;;;;;;;;;5001134;28;20069;-91
2024/01/22 01:14:54;;;;;;;0.10;0.10;;;;;;;;;;4994614;28;20135;-92
2024/01/22 01:17:20;;;;;;;0.10;0.10;;;;;;;;;;5010402;28;20033;-92
2024/01/22 01:19:46;;;;;;;0.10;0.10;;;;;;;;;;5001686;28;20022;-92
2024/01/22 01:22:12;;;;;;;0.10;0.10;;;;;;;;;;5003176;28;20021;-91
2024/01/22 01:24:38;;;;;;;0.08;0.08;;;;;;;;;;5005202;28;20025;-91
2024/01/22 01:27:04;;;;;;;0.10;0.10;;;;;;;;;;4998906;28;20504;-92
2024/01/22 01:29:30;;;;;;;0.10;0.10;;;;;;;;;;5002120;28;20323;-92
2024/01/22 01:31:56;;;;;;;0.00;0.00;;;;;;;;;;4998288;28;20033;-90
2024/01/22 01:34:22;;;;;;;0.10;0.10;;;;;;;;;;5000237;28;20038;-91
2024/01/22 01:36:48;;;;;;;0.10;0.10;;;;;;;;;;5001451;28;20033;-92
2024/01/22 01:39:14;;;;;;;0.10;0.10;;;;;;;;;;4997617;28;20171;-91
2024/01/22 01:41:40;;;;;;;0.10;0.10;;;;;;;;;;5002730;28;20040;-93
2024/01/22 01:44:06;;;;;;;0.10;0.10;;;;;;;;;;5015705;28;20030;-91
2024/01/22 01:46:32;;;;;;;0.10;0.10;;;;;;;;;;5001576;28;20033;-92
2024/01/22 01:48:58;;;;;;;0.10;0.10;;;;;;;;;;4999665;28;20042;-91
2024/01/22 01:51:25;;;;;;;0.00;0.00;;;;;;;;;;5001144;28;20029;-91
2024/01/22 01:53:52;;;;;;;0.10;0.10;;;7.90;99.90;;;;;;5001239;28;20477;-92
2024/01/22 01:56:18;;;;;;;0.10;0.10;;;;;;;;;;4998038;28;20038;-92
2024/01/22 01:58:44;;;;;;;0.00;0.00;;;;;;;;;;5004056;28;20041;-91
2024/01/22 02:01:10;;;;;;;0.10;0.10;;;;;;;;;;5017802;28;20045;-89
2024/01/22 02:03:36;;;;;;;0.00;0.00;;;;;;;;;;5006286;28;20045;-92
2024/01/22 02:06:02;;;;;;;0.10;0.10;;;;;;;;;;5003247;28;20033;-92
2024/01/22 02:10:57;;;;;;;0.10;0.10;;;;;;;;;;5075948;23;20270;-90
2024/01/22 02:13:25;;;;;;;0.10;0.10;;;;;;;;;;5037035;28;20037;-88
2024/01/22 02:15:52;;;;;;;0.10;0.10;;;;;;;;;;5042038;28;20005;-88
2024/01/22 02:18:18;;;;;;;0.10;0.10;;;;;;;;;;5043113;28;20033;-88
2024/01/22 02:20:44;;;;;;;0.05;0.05;;;;;;;;;;5041373;28;20257;-87
2024/01/22 02:23:10;;;;;;;0.10;0.10;;;;;;;;;;5042279;28;20018;-88
2024/01/22 02:25:36;;;;;;;0.10;0.10;;;;;;;;;;5061365;28;20021;-86
2024/01/22 02:28:02;;;;;;;0.00;0.00;;;;;;;;;;5041752;28;20040;-87
2024/01/22 02:30:28;;;;;;;0.10;0.10;;;;;;;;;;5043698;28;20040;-85
2024/01/22 02:32:54;;;;;;;0.10;0.10;;;;;;;;;;5041190;28;20028;-88
2024/01/22 02:35:21;;;;;;;0.10;0.10;;;;;;;;;;5039171;28;20033;-87
2024/01/22 02:37:47;;;;;;;0.10;0.10;;;;;;;;;;5039665;28;20057;-85
2024/01/22 02:40:13;;;;;;;0.10;0.10;;;;;;;;;;5039759;28;20021;-85
2024/01/22 02:42:39;;;;;;;0.10;0.10;;;;;;;;;;5041399;28;20100;-88
2024/01/22 02:45:07;;;;;;;0.10;0.10;;;;;;;;;;5041984;28;20045;-88
2024/01/22 02:47:34;;;;;;;0.10;0.10;;;;;;;;;;5041403;28;20144;-88
2024/01/22 02:50:00;;;;;;;0.05;0.05;;;8.60;99.90;;;;;;5039822;28;20081;-87
2024/01/22 02:52:26;;;;;;;0.00;0.00;;;;;;;;;;5046289;28;20025;-88
2024/01/22 02:54:52;;;;;;;0.10;0.10;;;;;;;;;;5039808;28;20110;-88
2024/01/22 02:57:18;;;;;;;0.10;0.10;;;;;;;;;;5041204;28;20037;-87
2024/01/22 02:59:44;;;;;;;0.10;0.10;;;;;;;;;;5037107;28;20048;-88
2024/01/22 03:02:10;;;;;;;0.10;0.10;;;;;;;;;;5038936;28;20017;-89
2024/01/22 03:04:36;;;;;;;0.10;0.10;;;;;;;;;;5038699;28;20037;-87
2024/01/22 03:07:02;;;;;;;0.00;0.00;;;;;;;;;;5043468;28;20034;-86
2024/01/22 03:09:27;;;;;;;0.10;0.10;;;;;;;;;;5038743;28;20195;-86
2024/01/22 03:11:53;;;;;;;0.10;0.10;;;;;;;;;;5040016;28;20039;-86
2024/01/22 03:14:19;;;;;;;0.10;0.10;;;;;;;;;;5037947;28;20044;-86
2024/01/22 03:16:45;;;;;;;0.03;0.03;;;8.80;99.90;;;;;;5038434;28;20262;-88
2024/01/22 03:19:11;;;;;;;0.05;0.05;;;;;;;;;;5039252;28;20033;-86
2024/01/22 03:21:37;;;;;;;0.10;0.10;;;;;;;;;;5038954;28;21200;-85
2024/01/22 03:24:03;;;;;;;0.10;0.10;;;;;;;;;;5036785;28;20174;-85
2024/01/22 03:26:29;;;;;;;0.10;0.10;;;;;;;;;;5043663;28;20041;-87
2024/01/22 03:28:55;;;;;;;0.10;0.10;;;;;;;;;;5039298;28;20037;-87
2024/01/22 03:31:21;;;;;;;0.10;0.10;;;8.80;99.90;;;;;;5039216;28;20010;-87
2024/01/22 03:33:47;;;;;;;0.10;0.10;;;;;;;;;;5035614;28;20052;-87
2024/01/22 03:36:13;;;;;;;0.03;0.03;;;;;;;;;;5036991;28;20029;-87
2024/01/22 03:38:38;;;;;;;0.10;0.10;;;8.60;99.90;;;;;;5040709;28;20059;-87
2024/01/22 03:41:05;;;;;;;0.10;0.10;;;;;;;;;;5037864;28;20119;-86
2024/01/22 03:43:30;;;;;;;0.10;0.10;;;;;;;;;;5037780;28;20021;-84
2024/01/22 03:45:56;;;;;;;0.10;0.10;;;;;;;;;;5036684;28;20085;-87
2024/01/22 03:48:22;;;;;;;0.10;0.10;;;;;;;;;;5040468;28;20041;-86
2024/01/22 03:50:48;;;;;;;0.10;0.10;;;;;;;;;;5044919;28;20029;-86
2024/01/22 03:53:14;;;;;;;0.00;0.00;;;;;;;;;;5036214;28;20014;-86
2024/01/22 03:55:40;;;;;;;0.10;0.10;;;;;;;;;;5038239;28;20053;-88
2024/01/22 03:58:07;;;;;;;0.05;0.05;;;;;;;;;;5042036;28;20056;-88
2024/01/22 04:00:32;;;;;;;0.00;0.00;;;;;;;;;;5037580;28;20022;-87
2024/01/22 04:02:58;;;;;;;0.10;0.10;;;;;;;;;;5043073;28;20025;-85
2024/01/22 04:05:24;;;;;;;0.10;0.10;;;;;;;;;;5041725;28;20055;-85
2024/01/22 04:07:50;;;;;;;0.10;0.10;;;;;;;;;;5043455;28;20014;-86
2024/01/22 04:10:16;;;;;;;0.00;0.00;;;;;;;;;;5037152;28;20776;-88
2024/01/22 04:12:42;;;;;;;0.10;0.10;;;;;;;;;;5037349;28;20042;-88
2024/01/22 04:15:08;;;;;;;0.10;0.10;;;;;;;;;;5038111;28;20029;-85
2024/01/22 04:17:34;;;;;;;0.10;0.10;;;;;;;;;;5042251;28;20072;-87
2024/01/22 04:20:00;;;;;;;0.00;0.00;;;;;;;;;;5035461;28;20026;-86
2024/01/22 04:22:26;;;;;;;0.10;0.10;;;;;;;;;;5036429;28;20060;-85
2024/01/22 04:24:52;;;;;;;0.10;0.10;;;;;;;;;;5039727;28;20078;-86
2024/01/22 04:27:18;;;;;;;0.10;0.10;;;;;;;;;;5035964;28;20018;-87
2024/01/22 04:29:44;;;;;;;0.10;0.10;;;;;;;;;;5054813;28;20030;-86
2024/01/22 04:32:10;;;;;;;0.10;0.10;;;;;;;;;;5038477;28;20029;-88
2024/01/22 04:34:39;;;;;;;0.10;0.10;;;;;;;;;;5032362;28;20025;-85
2024/01/22 04:37:05;;;;;;;0.08;0.08;;;;;;;;;;5042299;28;20013;-85
2024/01/22 04:39:31;;;;;;;0.10;0.10;;;;;;;;;;5054214;28;20085;-86
2024/01/22 04:41:57;;;;;;;0.08;0.08;;;;;;;;;;5038866;28;20058;-86
2024/01/22 04:44:23;;;;;;;0.10;0.10;;;;;;;;;;5033990;28;20133;-87
2024/01/22 04:46:49;;;;;;;0.00;0.00;;;;;;;;;;5038512;28;20036;-85
2024/01/22 04:49:15;;;;;;;0.00;0.00;;;;;;;;;;5037002;28;20021;-88
2024/01/22 04:51:44;;;;;;;0.10;0.10;;;9.20;99.90;;;;;;5037297;28;20029;-86
2024/01/22 04:54:10;;;;;;;0.00;0.00;;;9.20;99.90;;;;;;5040364;28;20064;-87
2024/01/22 04:56:41;;;;;;;0.10;0.10;;;9.00;99.90;;;;;;5039305;28;20033;-87
2024/01/22 04:59:07;;;;;;;0.10;0.10;;;;;;;;;;5040777;28;20029;-85
2024/01/22 05:01:33;;;;;;;0.00;0.00;;;;;;;;;;5038451;28;20009;-87
2024/01/22 05:03:59;;;;;;;0.10;0.10;;;;;;;;;;5037515;28;20097;-88
2024/01/22 05:06:25;;;;;;;0.10;0.10;;;;;;;;;;5041539;28;20017;-87
2024/01/22 05:08:51;;;;;;;0.00;0.00;;;;;;;;;;5041658;28;20009;-87
2024/01/22 05:11:17;;;;;;;0.00;0.00;;;;;;;;;;5040680;28;20091;-86
2024/01/22 05:13:53;;;;;;;0.00;0.00;;;8.80;99.90;;;;;;5054109;28;20048;-88
2024/01/22 05:16:20;;;;;;;0.00;0.00;;;8.70;99.90;;;;;;5042340;28;20014;-88
2024/01/22 05:18:47;;;;;;;0.03;0.03;;;8.60;99.90;;;;;;5039999;28;20045;-88
2024/01/22 05:21:13;;;;;;;0.00;0.00;;;;;;;;;;5041202;28;20025;-86
2024/01/22 05:23:39;;;;;;;0.10;0.10;;;8.60;99.90;;;;;;5040316;28;20033;-85
2024/01/22 05:26:08;;;;;;;0.00;0.00;;;;;;;;;;5049252;28;20010;-87
2024/01/22 05:28:34;;;;;;;0.00;0.00;;;8.60;99.90;;;;;;5046939;28;20024;-86
2024/01/22 05:31:00;;;;;;;0.10;0.10;;;;;;;;;;5034488;28;20013;-87
2024/01/22 05:33:27;;;;;;;0.10;0.10;;;8.60;99.90;;;;;;5041101;28;20045;-85
2024/01/22 05:35:53;;;;;;;0.10;0.10;;;;;;;;;;5039608;28;20037;-87
2024/01/22 05:38:19;;;;;;;0.10;0.10;;;;;;;;;;5043023;28;20048;-89
2024/01/22 05:40:45;;;;;;;0.10;0.10;;;;;;;;;;5041739;28;20026;-87
2024/01/22 05:43:11;;;;;;;0.00;0.00;;;;;;;;;;5044057;28;20024;-87
2024/01/22 05:45:37;;;;;;;0.10;0.10;;;;;;;;;;5044039;28;20009;-86
2024/01/22 05:48:03;;;;;;;0.08;0.08;;;;;;;;;;5044753;28;20029;-85
2024/01/22 05:50:29;;;;;;;0.10;0.10;;;;;;;;;;5038669;28;20018;-87
2024/01/22 05:52:55;;;;;;;0.10;0.10;;;;;;;;;;5044580;28;20056;-88
2024/01/22 05:55:21;;;;;;;0.10;0.10;;;;;;;;;;5041883;28;20014;-86
2024/01/22 05:57:47;;;;;;;0.00;0.00;;;;;;;;;;5044697;28;20069;-88
2024/01/22 06:00:14;;;;;;;0.00;0.00;;;;;;;;;;5059154;28;20017;-86
2024/01/22 06:02:40;;;;;;;0.10;0.10;;;8.60;99.90;;;;;;5042736;28;20041;-86
2024/01/22 06:05:06;;;;;;;0.10;0.10;;;;;;;;;;5038275;28;20048;-86
2024/01/22 06:07:32;;;;;;;0.10;0.10;;;;;;;;;;5041800;28;20013;-87
2024/01/22 06:09:58;;;;;;;0.10;0.10;;;;;;;;;;5052480;28;20032;-89
2024/01/22 06:12:25;;;;;;;0.03;0.03;;;;;;;;;;5040434;28;20021;-88
2024/01/22 06:14:51;;;;;;;0.10;0.10;;;;;;;;;;5037831;28;20017;-87
2024/01/22 06:17:17;;;;;;;0.08;0.08;;;;;;;;;;5038622;28;20059;-88
2024/01/22 06:19:43;;;;;;;0.00;0.00;;;;;;;;;;5038387;28;20041;-85
2024/01/22 06:22:12;;;;;;;0.10;0.10;;;;;;;;;;5040816;28;20033;-84
2024/01/22 06:24:38;;;;;;;0.00;0.00;;;;;;;;;;5040249;28;20037;-84
2024/01/22 06:27:04;;;;;;;0.10;0.10;;;;;;;;;;5038050;28;20093;-85
2024/01/22 06:29:30;;;;;;;0.00;0.00;;;;;;;;;;5039633;28;20044;-85
2024/01/22 06:31:55;;;;;;;0.10;0.10;;;;;;;;;;5040854;28;20064;-86
2024/01/22 06:34:21;;;;;;;0.03;0.03;;;;;;;;;;5040265;28;20021;-86
2024/01/22 06:36:47;;;;;;;0.10;0.10;;;;;;;;;;5039173;28;20022;-86
2024/01/22 06:39:13;;;;;;;0.10;0.10;;;;;;;;;;5039197;28;20053;-84
2024/01/22 06:41:39;;;;;;;0.00;0.00;;;;;;;;;;5039655;28;20037;-82
2024/01/22 06:44:05;;;;;;;0.10;0.10;;;8.80;99.90;;;;;;5039560;28;20013;-85
2024/01/22 06:46:31;;;;;;;0.00;0.00;;;;;;;;;;5030521;28;20018;-86
2024/01/22 06:48:57;;;;;;;0.00;0.00;;;;;;;;;;5038838;28;20037;-86
2024/01/22 06:51:23;;;;;;;0.00;0.00;;;;;;;;;;5042900;28;20020;-85
2024/01/22 06:53:50;;;;;;;0.10;0.10;;;;;;;;;;5036499;28;20016;-85
2024/01/22 06:56:15;;;;;;;0.00;0.00;;;;;;;;;;5037489;28;20056;-86
2024/01/22 06:58:41;;;;;;;0.00;0.00;;;;;;;;;;5036749;28;20096;-83
2024/01/22 07:01:07;;;;;;;0.10;0.10;;;;;;;;;;5038912;28;20056;-87
2024/01/22 07:03:35;;;;;;;0.10;0.10;;;;;;;;;;5037987;28;20029;-85
2024/01/22 07:06:01;;;;;;;0.00;0.00;;;;;;;;;;5039601;28;20013;-85
2024/01/22 07:08:27;;;;;;;0.00;0.00;;;;;;;;;;5040583;28;20020;-85
2024/01/22 07:10:53;;;;;;;0.10;0.10;;;;;;;;;;5039868;28;20089;-86
2024/01/22 07:13:19;;;;;;;0.00;0.00;;;;;;;;;;5036445;28;20032;-87
2024/01/22 07:15:45;;;;;;;0.00;0.00;;;;;;;;;;5034110;28;20113;-85
2024/01/22 07:18:11;;;;;;;0.10;0.10;;;;;;;;;;5042969;28;20025;-86
2024/01/22 07:20:37;;;;;;;0.00;0.00;;;;;;;;;;5042133;28;20034;-86
2024/01/22 07:23:03;;;;;;;0.00;0.00;;;;;;;;;;5044646;28;20142;-86
2024/01/22 07:25:34;;;;;;;0.00;0.00;;;;;;;;;;5058345;28;20013;-83
2024/01/22 07:28:00;;;;;;;0.00;0.00;;;;;;;;;;5045087;28;20037;-84
2024/01/22 07:30:26;;;;;;;0.00;0.00;;;;;;;;;;5040326;28;20028;-86
2024/01/22 07:32:52;;;;;;;0.10;0.10;;;;;;;;;;5044046;28;20037;-86
2024/01/22 07:35:18;;;;;;;0.03;0.03;;;;;;;;;;5037497;28;20029;-86
2024/01/22 07:37:47;;;;;;;0.10;0.10;;;;;;;;;;5035342;28;20084;-87
2024/01/22 07:40:13;;;;;;;0.10;0.10;;;;;;;;;;5035714;28;20197;-84
2024/01/22 07:42:41;;;;;;;0.10;0.10;;;9.70;99.90;;;;;;5039395;28;20029;-84
2024/01/22 07:45:08;;;;;;;0.00;0.00;;;9.90;99.90;;;;;;5039301;28;20030;-85
2024/01/22 07:47:34;;;;;;;0.00;0.00;;;;;;;;;;5037776;28;20006;-86
2024/01/22 07:50:00;;;;;;;0.00;0.00;;;;;;;;;;5041131;28;20018;-85
2024/01/22 07:52:26;;;;;;;0.00;0.00;;;;;;;;;;5038660;28;20097;-88
2024/01/22 07:54:52;;;;;;;0.10;0.10;;;;;;;;;;5042181;28;20080;-85
2024/01/22 07:57:18;;;;;;;0.08;0.08;;;;;;;;;;5041040;28;20037;-86
2024/01/22 07:59:44;;;;;;;0.00;0.00;;;;;;;;;;5043946;28;20112;-84
2024/01/22 08:02:10;;;;;;;0.00;0.00;;;;;;;;;;5039715;28;20077;-86
2024/01/22 08:04:37;;;;;;;0.00;0.00;;;;;;;;;;5045275;28;20025;-84
2024/01/22 08:07:03;;;;;;;0.00;0.00;;;;;;;;;;5041773;28;20029;-85
2024/01/22 08:09:33;;;;;;;0.00;0.00;;;9.70;99.90;;;;;;5041745;28;20021;-85
2024/01/22 08:11:59;;;;;;;;;;;9.70;99.90;;;;;;5043927;28;20028;-84
2024/01/22 08:14:24;;;;;;;0.10;0.10;;;9.50;99.90;;;;;;5038066;28;19968;-83
2024/01/22 08:16:50;;;;;;;0.00;0.00;;;9.70;99.90;;;;;;5041053;28;20018;-85
2024/01/22 08:19:16;;;;;;;0.08;0.08;;;;;;;;;;5034186;28;20049;-86
2024/01/22 08:21:42;;;;;;;0.10;0.10;;;;;;;;;;5040704;28;20447;-84
2024/01/22 08:24:08;;;;;;;0.00;0.00;;;;;;;;;;5036905;28;20061;-84
2024/01/22 08:26:34;;;;;;;0.00;0.00;;;;;;;;;;5053161;28;20014;-84
2024/01/22 08:29:00;;;;;;;0.00;0.00;;;;;;;;;;5032394;28;20097;-84
2024/01/22 08:31:26;;;;;;;0.00;0.00;;;;;;;;;;5037657;28;20036;-83
2024/01/22 08:33:54;;;;;;;0.00;0.00;;;;;;;;;;5038485;28;20032;-86
2024/01/22 08:36:20;;;;;;;0.00;0.00;;;;;;;;;;5035814;28;20030;-85
2024/01/22 08:38:46;;;;;;;0.10;0.10;;;;;;;;;;5030964;28;20104;-84
2024/01/22 08:41:11;;;;;;;0.10;0.10;;;;;;;;;;5034540;28;20059;-85
2024/01/22 08:43:37;;;;;;;0.00;0.00;;;;;;;;;;5036448;28;20013;-86
2024/01/22 08:46:03;;;;;;;0.00;0.00;;;;;;;;;;5033681;28;20044;-86
2024/01/22 08:48:30;;;;;;;0.00;0.00;;;;;;;;;;5040784;28;20038;-85
2024/01/22 08:50:56;;;;;;;0.10;0.10;;;;;;;;;;5042283;28;20052;-85
2024/01/22 08:53:22;;;;;;;0.10;0.10;;;;;;;;;;5055745;28;20062;-86
2024/01/22 08:55:48;;;;;;;0.10;0.10;;;;;;;;;;5034339;28;20029;-86
2024/01/22 08:58:15;;;;;;;0.08;0.08;;;;;;;;;;5038488;28;20009;-86
2024/01/22 09:00:41;;;;;;;0.00;0.00;;;;;;;;;;5045891;28;20040;-86
2024/01/22 09:03:07;;;;;;;0.10;0.10;;;;;;;;;;5041151;28;20034;-83
2024/01/22 09:05:33;;;;;;;0.00;0.00;;;;;;;;;;5040454;28;20054;-86
2024/01/22 09:07:59;;;;;;;0.00;0.00;;;;;;;;;;5048477;28;20032;-86
2024/01/22 09:10:26;;;;;;;0.00;0.00;;;;;;;;;;5041934;28;20037;-84
2024/01/22 09:12:52;;;;;;;0.10;0.10;;;;;;;;;;5038938;28;20040;-84
2024/01/22 09:15:18;;;;;;;0.10;0.10;;;;;;;;;;5038662;28;20039;-84
2024/01/22 09:17:44;;;;;;;0.00;0.00;;;9.50;99.90;;;;;;5037646;28;20021;-83
2024/01/22 09:20:10;;;;;;;0.00;0.00;;;9.60;99.90;;;;;;5036863;28;20014;-84
2024/01/22 09:22:36;;;;;;;0.10;0.10;;;;;;;;;;5034513;28;20683;-83
2024/01/22 09:25:03;;;;;;;0.00;0.00;;;;;;;;;;5036405;28;20040;-85
2024/01/22 09:27:29;;;;;;;0.00;0.00;;;;;;;;;;5040066;28;20018;-84
2024/01/22 09:29:55;;;;;;;0.00;0.00;;;;;;;;;;5036069;28;20087;-84
2024/01/22 09:32:21;;;;;;;0.00;0.00;;;;;;;;;;5038551;28;20018;-84
2024/01/22 09:34:47;;;;;;;0.00;0.00;;;;;;;;;;5038909;28;20025;-85
2024/01/22 09:37:14;;;;;;;0.00;0.00;;;;;;;;;;5034414;28;20018;-85
2024/01/22 09:39:40;;;;;;;0.00;0.00;;;;;;;;;;5041813;28;20013;-84
2024/01/22 09:42:06;;;;;;;0.00;0.00;;;;;;;;;;5041775;28;20065;-86
2024/01/22 09:44:33;;;;;;;0.00;0.00;;;10.00;99.90;;;;;;5044914;28;20076;-85
2024/01/22 09:46:59;;;;;;;0.05;0.05;;;;;;;;;;5038948;28;20048;-84
2024/01/22 09:49:25;;;;;;;0.00;0.00;;;;;;;;;;5039484;28;20002;-85
2024/01/22 09:51:51;;;;;;;0.10;0.10;;;;;;;;;;5043798;28;20109;-84
2024/01/22 09:54:18;;;;;;;0.00;0.00;;;10.30;99.90;;;;;;5050245;28;20060;-86
2024/01/22 09:56:54;;;;;;;0.00;0.00;;;10.10;99.90;;;;;;5041076;28;20044;-85
2024/01/22 09:59:24;;;;;;;0.00;0.00;;;10.20;99.90;;;;;;5037254;28;20033;-85
2024/01/22 10:01:51;;;;;;;0.00;0.00;;;10.40;99.90;;;;;;5037615;28;20032;-85
2024/01/22 10:04:18;;;;;;;0.00;0.00;;;10.40;99.90;;;;;;5024638;28;20031;-85
2024/01/22 10:06:48;;;;;;;0.00;0.00;;;10.50;99.90;;;;;;5033133;28;20022;-82
2024/01/22 10:09:17;;;;;;;0.03;0.03;;;;;;;;;;5032981;28;20059;-85
2024/01/22 10:11:45;;;;;;;0.00;0.00;;;10.50;99.90;;;;;;5034366;28;20037;-81
2024/01/22 10:14:11;;;;;;;0.00;0.00;;;10.70;99.90;;;;;;5016394;28;20014;-84
2024/01/22 10:16:37;;;;;;;0.00;0.00;;;;;;;;;;5037620;28;20041;-84
2024/01/22 10:19:08;;;;;;;0.00;0.00;;;10.80;99.90;;;;;;5037889;28;20030;-85
2024/01/22 10:21:35;;;;;;;0.00;0.00;;;10.80;99.90;;;;;;5035922;28;20076;-84
2024/01/22 10:24:06;;;;;;;0.00;0.00;;;10.90;99.90;;;;;;5049084;28;20044;-82
2024/01/22 10:26:32;;;;;;;0.00;0.00;;;;;;;;;;5037437;28;20022;-85
2024/01/22 10:29:17;;;;;;;0.00;0.00;;;10.90;99.90;;;;;;5052791;28;20017;-85
2024/01/22 10:31:53;;;;;;;0.00;0.00;;;10.50;99.90;;;;;;5034422;28;20029;-83
2024/01/22 10:34:20;;;;;;;0.00;0.00;;;;;;;;;;5040788;28;20027;-84
2024/01/22 10:36:45;;;;;;;0.00;0.00;;;;;;;;;;5054441;28;20018;-84
2024/01/22 10:39:11;;;;;;;0.00;0.00;;;10.50;99.90;;;;;;5036529;28;20109;-85
2024/01/22 10:41:40;;;;;;;0.00;0.00;;;;;;;;;;5039829;28;20021;-83
2024/01/22 10:44:06;;;;;;;0.00;0.00;;;10.50;99.90;;;;;;5034284;28;20014;-85
2024/01/22 10:46:32;;;;;;;0.00;0.00;;;;;;;;;;5038984;28;20052;-85
2024/01/22 10:48:58;;;;;;;0.00;0.00;;;;;;;;;;5036045;28;20042;-84
2024/01/22 10:51:25;;;;;;;0.00;0.00;;;10.60;99.90;;;;;;5039356;28;20032;-85
2024/01/22 10:53:52;;;;;;;0.00;0.00;;;10.60;99.90;;;;;;5036975;28;20017;-85
2024/01/22 10:56:18;;;;;;;0.00;0.00;;;;;;;;;;5040698;28;20044;-86
2024/01/22 10:58:45;;;;;;;0.10;0.10;;;;;;;;;;5040944;28;20033;-85
2024/01/22 11:01:23;;;;;;;0.00;0.00;;;10.60;99.90;;;;;;5038365;28;20013;-86
2024/01/22 11:03:50;;;;;;;0.00;0.00;;;10.50;99.90;;;;;;5036704;28;20032;-86
2024/01/22 11:06:18;;;;;;;0.00;0.00;;;10.50;99.90;;;;;;5037672;28;20104;-85
2024/01/22 11:08:48;;;;;;;0.00;0.00;;;10.50;99.90;;;;;;5036274;28;20336;-84
2024/01/22 11:11:16;;;;;;;0.00;0.00;;;10.50;99.90;;;;;;5043353;28;20021;-85
2024/01/22 11:13:42;;;;;;;0.00;0.00;;;;;;;;;;5036681;28;20048;-85
2024/01/22 11:16:09;;;;;;;0.00;0.00;;;;;;;;;;5033003;28;20013;-85
2024/01/22 11:18:35;;;;;;;0.00;0.00;;;;;;;;;;5037931;28;20029;-87
2024/01/22 11:21:20;;;;;;;0.00;0.00;;;10.80;99.90;;;;;;5034971;28;20037;-88
2024/01/22 11:24:05;;;;;;;0.00;0.00;;;10.70;99.90;;;;;;5037373;28;20064;-89
2024/01/22 11:26:32;;;;;;;0.00;0.00;;;11.00;99.90;;;;;;5040969;28;20307;-89
2024/01/22 11:29:16;;;;;;;0.00;0.00;;;10.90;99.90;;;;;;5040923;28;20096;-86
2024/01/22 11:31:42;;;;;;;0.00;0.00;;;;;;;;;;5036425;28;20037;-86
2024/01/22 11:34:09;;;;;;;0.00;0.00;;;;;;;;;;5052620;28;20025;-84
2024/01/22 11:36:56;;;;;;;0.00;0.00;;;11.20;99.90;;;;;;5039923;28;20021;-86
2024/01/22 11:39:39;;;;;;;0.00;0.00;;;11.30;99.90;;;;;;5038237;28;20018;-86
2024/01/22 11:42:17;;;;;;;0.00;0.00;;;11.20;99.90;;;;;;5038368;28;20018;-87
2024/01/22 11:44:45;;;;;;;0.00;0.00;;;;;;;;;;5042787;28;20022;-87
2024/01/22 11:47:11;;;;;;;0.00;0.00;;;;;;;;;;5039748;28;20033;-87
2024/01/22 11:49:37;;;;;;;0.00;0.00;;;;;;;;;;5036082;28;20029;-86
2024/01/22 13:04:52;;;;;;;0.10;0.10;;;;;;;;;;5044748;28;20034;-88
2024/01/22 13:07:18;;;;;;;0.00;0.00;;;;;;;;;;5040040;28;20041;-88
2024/01/22 13:09:45;;;;;;;0.00;0.00;;;;;;;;;;5039093;28;20116;-89
2024/01/22 13:12:11;;;;;;;0.00;0.00;;;;;;;;;;5037695;28;20033;-88
2024/01/22 13:14:37;;;;;;;0.03;0.03;;;;;;;;;;5042431;28;20025;-87
2024/01/22 14:16:35;;;;;;;0.00;0.00;;;;;;;;;;5050178;28;20018;-84
2024/01/22 14:19:00;;;;;;;0.00;0.00;;;;;;;;;;5036814;28;20037;-85
2024/01/22 14:21:27;;;;;;;0.00;0.00;;;;;;;;;;5035813;28;20013;-83
2024/01/22 14:23:53;;;;;;;0.00;0.00;;;;;;;;;;5030852;28;20025;-87
2024/01/22 14:26:19;;;;;;;0.00;0.00;;;;;;;;;;5048379;28;20040;-86
2024/01/22 14:28:45;;;;;;;0.00;0.00;;;;;;;;;;5026167;28;20084;-85
2024/01/22 14:31:11;;;;;;;0.10;0.10;;;;;;;;;;5038212;28;20036;-86
2024/01/22 14:33:37;;;;;;;0.00;0.00;;;;;;;;;;5035812;28;20030;-84
2024/01/22 14:36:03;;;;;;;0.00;0.00;;;;;;;;;;5029546;28;20033;-90
2024/01/22 14:38:29;;;;;;;0.00;0.00;;;;;;;;;;5022265;28;20037;-90
2024/01/22 14:40:56;;;;;;;0.00;0.00;;;;;;;;;;5025223;28;20116;-89
2024/01/22 14:43:22;;;;;;;0.00;0.00;;;;;;;;;;5026943;28;20073;-92
2024/01/22 14:45:48;;;;;;;0.00;0.00;;;;;;;;;;5027640;28;20033;-91
2024/01/22 14:48:14;;;;;;;0.00;0.00;;;;;;;;;;5034609;28;20063;-85
2024/01/22 14:50:40;;;;;;;0.00;0.00;;;;;;;;;;5035736;28;20018;-84
2024/01/22 14:53:06;;;;;;;0.00;0.00;;;;;;;;;;5033529;28;20053;-83
2024/01/22 14:55:36;;;;;;;0.00;0.00;;;9.10;99.90;;;;;;5030965;28;20036;-84
2024/01/22 14:58:03;;;;;;;0.00;0.00;;;9.10;99.90;;;;;;5025325;28;20038;-86
2024/01/22 15:00:28;;;;;;;0.00;0.00;;;;;;;;;;5032970;28;20026;-85
2024/01/22 15:02:57;;;;;;;0.00;0.00;;;;;;;;;;5034755;28;20048;-86
2024/01/22 15:05:23;;;;;;;0.10;0.10;;;;;;;;;;5048982;28;20026;-87
2024/01/22 15:07:50;;;;;;;0.00;0.00;;;;;;;;;;5037915;28;20052;-86
2024/01/22 15:10:16;;;;;;;0.00;0.00;;;;;;;;;;5032194;28;20421;-85
2024/01/22 15:12:41;;;;;;;0.10;0.10;;;;;;;;;;5050853;28;20099;-85
2024/01/22 15:15:09;;;;;;;0.00;0.00;;;;;;;;;;5031213;28;20022;-85
2024/01/22 15:17:36;;;;;;;0.00;0.00;;;;;;;;;;5039754;28;20024;-84
2024/01/22 15:20:02;;;;;;;0.00;0.00;;;;;;;;;;5029523;28;20109;-85
2024/01/22 15:22:28;;;;;;;0.00;0.00;;;;;;;;;;5031741;28;20048;-85
2024/01/22 15:24:54;;;;;;;0.00;0.00;;;;;;;;;;5038524;28;20041;-83
2024/01/22 15:27:20;;;;;;;0.10;0.10;;;;;;;;;;5036355;28;20018;-85
2024/01/22 15:29:46;;;;;;;0.00;0.00;;;;;;;;;;5049552;28;20014;-84
2024/01/22 15:32:12;;;;;;;0.10;0.10;;;;;;;;;;5048055;28;20060;-86
2024/01/22 15:34:38;;;;;;;0.10;0.10;;;;;;;;;;5040963;28;20048;-86
2024/01/22 15:37:04;;;;;;;0.00;0.00;;;;;;;;;;5035766;28;20030;-86
2024/01/22 15:39:32;;;;;;;0.00;0.00;;;;;;;;;;5037743;28;20085;-88
2024/01/22 15:41:58;;;;;;;0.00;0.00;;;;;;;;;;5032696;28;20018;-88
2024/01/22 15:44:25;;;;;;;0.00;0.00;;;;;;;;;;5033677;28;20033;-86
2024/01/22 15:46:50;;;;;;;0.00;0.00;;;;;;;;;;5023618;28;20026;-87
2024/01/22 15:49:16;;;;;;;0.10;0.10;;;;;;;;;;5030009;28;20048;-84
2024/01/22 15:51:42;;;;;;;0.10;0.10;;;;;;;;;;5049694;28;20048;-86
2024/01/22 15:54:08;;;;;;;0.10;0.10;;;;;;;;;;5030687;28;20018;-85
2024/01/22 15:56:34;;;;;;;0.00;0.00;;;;;;;;;;5035826;28;20065;-84
2024/01/22 15:59:00;;;;;;;0.10;0.10;;;;;;;;;;5036107;28;20021;-84
2024/01/22 16:01:27;;;;;;;0.10;0.10;;;;;;;;;;5041485;28;20073;-85
2024/01/22 16:03:54;;;;;;;0.10;0.10;;;;;;;;;;5031764;28;20021;-84
2024/01/22 16:06:22;;;;;;;0.00;0.00;;;8.30;99.90;;;;;;5037261;28;20014;-85
2024/01/22 16:08:48;;;;;;;0.10;0.10;;;;;;;;;;5028034;28;20028;-85
2024/01/22 16:11:14;;;;;;;0.10;0.10;;;;;;;;;;5033921;28;20103;-85
2024/01/22 16:13:45;;;;;;;0.10;0.10;;;;;;;;;;5031752;28;20018;-84
2024/01/22 16:16:11;;;;;;;0.00;0.00;;;;;;;;;;5029350;28;20069;-87
2024/01/22 16:18:40;;;;;;;0.10;0.10;;;8.20;99.90;;;;;;5033426;28;20029;-85
2024/01/22 16:21:07;;;;;;;0.10;0.10;;;;;;;;;;5033739;28;20056;-86
2024/01/22 16:23:33;;;;;;;0.10;0.10;;;;;;;;;;5032513;28;20013;-86
2024/01/22 16:25:59;;;;;;;0.00;0.00;;;;;;;;;;5033974;28;20041;-87
2024/01/22 16:28:25;;;;;;;0.10;0.10;;;;;;;;;;5045166;28;20030;-85
2024/01/22 16:30:50;;;;;;;0.00;0.00;;;;;;;;;;5036504;28;20018;-86
2024/01/22 16:33:16;;;;;;;0.10;0.10;;;;;;;;;;5035823;28;20013;-85